sensor_id;sensor_type;location;lat;lon;timestamp;P1;durP1;ratioP1;P2;durP2;ratioP2
5295;SDS011;2670;42.720;23.336;2023-05-07T00:01:58;16.33;;;11.07;;
5295;SDS011;2670;42.720;23.336;2023-05-07T00:04:24;21.50;;;12.67;;
5295;SDS011;2670;42.720;23.336;2023-05-07T00:06:51;15.77;;;11.73;;
5295;SDS011;2670;42.720;23.336;2023-05-07T00:09:18;18.53;;;12.80;;
5295;SDS011;2670;42.720;23.336;2023-05-07T00:11:44;22.57;;;12.30;;
5295;SDS011;2670;42.720;23.336;2023-05-07T00:14:13;21.87;;;11.70;;
5295;SDS011;2670;42.720;23.336;2023-05-07T00:16:39;18.07;;;10.67;;
5295;SDS011;2670;42.720;23.336;2023-05-07T00:19:06;16.40;;;11.10;;
5295;SDS011;2670;42.720;23.336;2023-05-07T00:21:33;17.43;;;10.30;;
5295;SDS011;2670;42.720;23.336;2023-05-07T00:23:59;27.63;;;13.10;;
5295;SDS011;2670;42.720;23.336;2023-05-07T00:26:26;17.33;;;11.03;;
5295;SDS011;2670;42.720;23.336;2023-05-07T00:28:53;16.63;;;11.00;;
5295;SDS011;2670;42.720;23.336;2023-05-07T00:31:21;17.43;;;10.57;;
5295;SDS011;2670;42.720;23.336;2023-05-07T00:33:47;16.53;;;10.03;;
5295;SDS011;2670;42.720;23.336;2023-05-07T00:36:14;15.67;;;11.00;;
5295;SDS011;2670;42.720;23.336;2023-05-07T00:38:41;17.27;;;10.23;;
5295;SDS011;2670;42.720;23.336;2023-05-07T00:41:07;14.60;;;10.37;;
5295;SDS011;2670;42.720;23.336;2023-05-07T00:43:34;15.23;;;10.83;;
5295;SDS011;2670;42.720;23.336;2023-05-07T00:46:01;16.97;;;10.60;;
5295;SDS011;2670;42.720;23.336;2023-05-07T00:48:29;16.17;;;11.77;;
5295;SDS011;2670;42.720;23.336;2023-05-07T00:50:56;19.27;;;11.20;;
5295;SDS011;2670;42.720;23.336;2023-05-07T00:53:23;15.03;;;10.60;;
5295;SDS011;2670;42.720;23.336;2023-05-07T00:55:51;14.80;;;9.83;;
5295;SDS011;2670;42.720;23.336;2023-05-07T00:58:18;16.63;;;10.30;;
5295;SDS011;2670;42.720;23.336;2023-05-07T01:00:46;16.73;;;10.10;;
5295;SDS011;2670;42.720;23.336;2023-05-07T01:03:12;16.27;;;9.67;;
5295;SDS011;2670;42.720;23.336;2023-05-07T01:05:40;13.03;;;10.00;;
5295;SDS011;2670;42.720;23.336;2023-05-07T01:08:09;21.30;;;10.93;;
5295;SDS011;2670;42.720;23.336;2023-05-07T01:10:36;14.13;;;9.80;;
5295;SDS011;2670;42.720;23.336;2023-05-07T01:13:03;17.33;;;10.97;;
5295;SDS011;2670;42.720;23.336;2023-05-07T01:15:31;23.97;;;11.17;;
5295;SDS011;2670;42.720;23.336;2023-05-07T01:17:58;19.00;;;11.67;;
5295;SDS011;2670;42.720;23.336;2023-05-07T01:20:25;16.73;;;11.07;;
5295;SDS011;2670;42.720;23.336;2023-05-07T01:22:53;14.57;;;9.90;;
5295;SDS011;2670;42.720;23.336;2023-05-07T01:25:21;19.80;;;11.37;;
5295;SDS011;2670;42.720;23.336;2023-05-07T01:27:48;15.53;;;10.67;;
5295;SDS011;2670;42.720;23.336;2023-05-07T01:30:14;22.10;;;11.80;;
5295;SDS011;2670;42.720;23.336;2023-05-07T01:32:43;22.40;;;11.77;;
5295;SDS011;2670;42.720;23.336;2023-05-07T01:35:19;15.90;;;10.07;;
5295;SDS011;2670;42.720;23.336;2023-05-07T01:37:48;15.73;;;10.23;;
5295;SDS011;2670;42.720;23.336;2023-05-07T01:40:17;30.40;;;11.17;;
5295;SDS011;2670;42.720;23.336;2023-05-07T01:42:44;15.60;;;9.93;;
5295;SDS011;2670;42.720;23.336;2023-05-07T01:45:13;14.93;;;9.97;;
5295;SDS011;2670;42.720;23.336;2023-05-07T01:47:40;14.50;;;9.60;;
5295;SDS011;2670;42.720;23.336;2023-05-07T01:50:07;15.50;;;9.13;;
5295;SDS011;2670;42.720;23.336;2023-05-07T01:52:36;15.77;;;8.43;;
5295;SDS011;2670;42.720;23.336;2023-05-07T01:55:04;18.03;;;8.83;;
5295;SDS011;2670;42.720;23.336;2023-05-07T01:57:33;21.23;;;8.93;;
5295;SDS011;2670;42.720;23.336;2023-05-07T02:00:00;12.70;;;8.43;;
5295;SDS011;2670;42.720;23.336;2023-05-07T02:02:27;16.73;;;9.30;;
5295;SDS011;2670;42.720;23.336;2023-05-07T02:04:54;18.30;;;7.10;;
5295;SDS011;2670;42.720;23.336;2023-05-07T02:07:21;10.93;;;7.53;;
5295;SDS011;2670;42.720;23.336;2023-05-07T02:09:47;10.80;;;6.90;;
5295;SDS011;2670;42.720;23.336;2023-05-07T02:12:14;13.17;;;6.93;;
5295;SDS011;2670;42.720;23.336;2023-05-07T02:14:42;10.13;;;5.80;;
5295;SDS011;2670;42.720;23.336;2023-05-07T02:17:09;9.20;;;6.90;;
5295;SDS011;2670;42.720;23.336;2023-05-07T02:19:35;8.83;;;6.80;;
5295;SDS011;2670;42.720;23.336;2023-05-07T02:22:02;11.93;;;6.50;;
5295;SDS011;2670;42.720;23.336;2023-05-07T02:24:29;9.40;;;6.47;;
5295;SDS011;2670;42.720;23.336;2023-05-07T02:26:56;9.90;;;7.03;;
5295;SDS011;2670;42.720;23.336;2023-05-07T02:29:22;11.40;;;6.47;;
5295;SDS011;2670;42.720;23.336;2023-05-07T02:31:50;10.07;;;6.77;;
5295;SDS011;2670;42.720;23.336;2023-05-07T02:34:18;8.07;;;6.60;;
5295;SDS011;2670;42.720;23.336;2023-05-07T02:36:44;12.27;;;7.60;;
5295;SDS011;2670;42.720;23.336;2023-05-07T02:39:11;17.80;;;6.73;;
5295;SDS011;2670;42.720;23.336;2023-05-07T02:41:38;11.57;;;7.97;;
5295;SDS011;2670;42.720;23.336;2023-05-07T02:44:05;12.30;;;6.70;;
5295;SDS011;2670;42.720;23.336;2023-05-07T02:46:32;12.13;;;7.43;;
5295;SDS011;2670;42.720;23.336;2023-05-07T02:49:00;9.80;;;6.90;;
5295;SDS011;2670;42.720;23.336;2023-05-07T02:51:26;18.47;;;7.40;;
5295;SDS011;2670;42.720;23.336;2023-05-07T02:53:54;9.37;;;6.50;;
5295;SDS011;2670;42.720;23.336;2023-05-07T02:56:21;10.50;;;6.77;;
5295;SDS011;2670;42.720;23.336;2023-05-07T02:58:48;15.60;;;7.30;;
5295;SDS011;2670;42.720;23.336;2023-05-07T03:01:14;18.30;;;8.13;;
5295;SDS011;2670;42.720;23.336;2023-05-07T03:03:41;14.43;;;8.60;;
5295;SDS011;2670;42.720;23.336;2023-05-07T03:06:09;17.40;;;7.53;;
5295;SDS011;2670;42.720;23.336;2023-05-07T03:08:36;10.43;;;7.17;;
5295;SDS011;2670;42.720;23.336;2023-05-07T03:11:03;9.10;;;6.80;;
5295;SDS011;2670;42.720;23.336;2023-05-07T03:13:29;12.03;;;8.40;;
5295;SDS011;2670;42.720;23.336;2023-05-07T03:15:56;14.10;;;8.70;;
5295;SDS011;2670;42.720;23.336;2023-05-07T03:18:23;12.70;;;8.07;;
5295;SDS011;2670;42.720;23.336;2023-05-07T03:20:51;15.37;;;9.37;;
5295;SDS011;2670;42.720;23.336;2023-05-07T03:23:19;15.17;;;9.20;;
5295;SDS011;2670;42.720;23.336;2023-05-07T03:25:46;14.50;;;10.00;;
5295;SDS011;2670;42.720;23.336;2023-05-07T03:28:12;19.07;;;13.50;;
5295;SDS011;2670;42.720;23.336;2023-05-07T03:30:39;16.97;;;11.77;;
5295;SDS011;2670;42.720;23.336;2023-05-07T03:33:06;16.93;;;9.70;;
5295;SDS011;2670;42.720;23.336;2023-05-07T03:35:32;16.73;;;9.07;;
5295;SDS011;2670;42.720;23.336;2023-05-07T03:37:59;17.63;;;11.57;;
5295;SDS011;2670;42.720;23.336;2023-05-07T03:40:27;15.37;;;10.60;;
5295;SDS011;2670;42.720;23.336;2023-05-07T03:42:54;16.77;;;10.43;;
5295;SDS011;2670;42.720;23.336;2023-05-07T03:45:21;15.97;;;10.30;;
5295;SDS011;2670;42.720;23.336;2023-05-07T03:47:48;17.93;;;11.23;;
5295;SDS011;2670;42.720;23.336;2023-05-07T03:50:14;14.37;;;9.50;;
5295;SDS011;2670;42.720;23.336;2023-05-07T03:52:41;18.30;;;10.43;;
5295;SDS011;2670;42.720;23.336;2023-05-07T03:55:08;20.67;;;10.87;;
5295;SDS011;2670;42.720;23.336;2023-05-07T03:57:37;15.60;;;9.30;;
5295;SDS011;2670;42.720;23.336;2023-05-07T04:00:04;18.67;;;9.80;;
5295;SDS011;2670;42.720;23.336;2023-05-07T04:02:32;12.93;;;8.67;;
5295;SDS011;2670;42.720;23.336;2023-05-07T04:04:59;11.17;;;8.40;;
5295;SDS011;2670;42.720;23.336;2023-05-07T04:07:26;15.53;;;8.30;;
5295;SDS011;2670;42.720;23.336;2023-05-07T04:09:52;13.47;;;8.53;;
5295;SDS011;2670;42.720;23.336;2023-05-07T04:12:19;19.03;;;9.87;;
5295;SDS011;2670;42.720;23.336;2023-05-07T04:14:47;14.93;;;9.70;;
5295;SDS011;2670;42.720;23.336;2023-05-07T04:17:14;13.20;;;7.90;;
5295;SDS011;2670;42.720;23.336;2023-05-07T04:19:40;13.73;;;8.17;;
5295;SDS011;2670;42.720;23.336;2023-05-07T04:22:10;15.37;;;9.93;;
5295;SDS011;2670;42.720;23.336;2023-05-07T04:24:37;17.50;;;9.03;;
5295;SDS011;2670;42.720;23.336;2023-05-07T04:27:03;17.20;;;10.07;;
5295;SDS011;2670;42.720;23.336;2023-05-07T04:29:31;14.80;;;9.37;;
5295;SDS011;2670;42.720;23.336;2023-05-07T04:31:59;20.30;;;8.57;;
5295;SDS011;2670;42.720;23.336;2023-05-07T04:34:26;12.53;;;9.03;;
5295;SDS011;2670;42.720;23.336;2023-05-07T04:36:53;13.17;;;9.30;;
5295;SDS011;2670;42.720;23.336;2023-05-07T04:39:19;14.10;;;7.80;;
5295;SDS011;2670;42.720;23.336;2023-05-07T04:41:46;12.80;;;9.00;;
5295;SDS011;2670;42.720;23.336;2023-05-07T04:44:13;13.50;;;8.20;;
5295;SDS011;2670;42.720;23.336;2023-05-07T04:46:39;19.23;;;10.77;;
5295;SDS011;2670;42.720;23.336;2023-05-07T04:49:07;16.20;;;9.57;;
5295;SDS011;2670;42.720;23.336;2023-05-07T04:51:35;11.77;;;8.73;;
5295;SDS011;2670;42.720;23.336;2023-05-07T04:54:01;12.20;;;9.00;;
5295;SDS011;2670;42.720;23.336;2023-05-07T04:56:28;14.37;;;8.93;;
5295;SDS011;2670;42.720;23.336;2023-05-07T04:58:56;18.90;;;9.37;;
5295;SDS011;2670;42.720;23.336;2023-05-07T05:01:23;22.10;;;10.37;;
5295;SDS011;2670;42.720;23.336;2023-05-07T05:03:49;16.53;;;9.93;;
5295;SDS011;2670;42.720;23.336;2023-05-07T05:06:17;13.43;;;9.37;;
5295;SDS011;2670;42.720;23.336;2023-05-07T05:08:44;22.23;;;9.67;;
5295;SDS011;2670;42.720;23.336;2023-05-07T05:11:11;14.90;;;9.43;;
5295;SDS011;2670;42.720;23.336;2023-05-07T05:13:37;19.07;;;10.17;;
5295;SDS011;2670;42.720;23.336;2023-05-07T05:16:04;15.20;;;8.73;;
5295;SDS011;2670;42.720;23.336;2023-05-07T05:18:32;12.20;;;8.70;;
5295;SDS011;2670;42.720;23.336;2023-05-07T05:20:59;14.70;;;9.07;;
5295;SDS011;2670;42.720;23.336;2023-05-07T05:23:27;16.77;;;9.50;;
5295;SDS011;2670;42.720;23.336;2023-05-07T05:25:55;11.10;;;9.00;;
5295;SDS011;2670;42.720;23.336;2023-05-07T05:28:22;14.47;;;9.00;;
5295;SDS011;2670;42.720;23.336;2023-05-07T05:30:49;21.83;;;9.87;;
5295;SDS011;2670;42.720;23.336;2023-05-07T05:33:16;14.67;;;10.30;;
5295;SDS011;2670;42.720;23.336;2023-05-07T05:35:42;15.50;;;11.03;;
5295;SDS011;2670;42.720;23.336;2023-05-07T05:38:10;14.30;;;9.97;;
5295;SDS011;2670;42.720;23.336;2023-05-07T05:40:38;18.23;;;10.90;;
5295;SDS011;2670;42.720;23.336;2023-05-07T05:43:05;17.90;;;10.73;;
5295;SDS011;2670;42.720;23.336;2023-05-07T05:45:32;17.73;;;11.33;;
5295;SDS011;2670;42.720;23.336;2023-05-07T05:47:58;14.47;;;10.10;;
5295;SDS011;2670;42.720;23.336;2023-05-07T05:50:25;13.77;;;10.30;;
5295;SDS011;2670;42.720;23.336;2023-05-07T05:52:52;17.23;;;10.87;;
5295;SDS011;2670;42.720;23.336;2023-05-07T05:55:19;31.80;;;11.03;;
5295;SDS011;2670;42.720;23.336;2023-05-07T05:57:48;17.33;;;11.27;;
5295;SDS011;2670;42.720;23.336;2023-05-07T06:00:15;15.90;;;10.57;;
5295;SDS011;2670;42.720;23.336;2023-05-07T06:02:42;18.30;;;11.53;;
5295;SDS011;2670;42.720;23.336;2023-05-07T06:05:09;23.70;;;11.53;;
5295;SDS011;2670;42.720;23.336;2023-05-07T06:07:35;20.73;;;11.37;;
5295;SDS011;2670;42.720;23.336;2023-05-07T06:10:02;19.10;;;11.30;;
5295;SDS011;2670;42.720;23.336;2023-05-07T06:12:29;16.07;;;10.80;;
5295;SDS011;2670;42.720;23.336;2023-05-07T06:14:57;18.60;;;12.43;;
5295;SDS011;2670;42.720;23.336;2023-05-07T06:17:24;19.73;;;12.00;;
5295;SDS011;2670;42.720;23.336;2023-05-07T06:19:51;23.47;;;11.17;;
5295;SDS011;2670;42.720;23.336;2023-05-07T06:22:18;16.00;;;10.60;;
5295;SDS011;2670;42.720;23.336;2023-05-07T06:24:45;16.13;;;10.40;;
5295;SDS011;2670;42.720;23.336;2023-05-07T06:27:11;16.83;;;11.70;;
5295;SDS011;2670;42.720;23.336;2023-05-07T06:29:38;25.93;;;11.90;;
5295;SDS011;2670;42.720;23.336;2023-05-07T06:32:09;16.40;;;11.10;;
5295;SDS011;2670;42.720;23.336;2023-05-07T06:34:36;15.60;;;11.03;;
5295;SDS011;2670;42.720;23.336;2023-05-07T06:37:03;16.43;;;11.77;;
5295;SDS011;2670;42.720;23.336;2023-05-07T06:39:30;16.43;;;11.87;;
5295;SDS011;2670;42.720;23.336;2023-05-07T06:41:57;14.30;;;10.40;;
5295;SDS011;2670;42.720;23.336;2023-05-07T06:44:24;19.20;;;12.30;;
5295;SDS011;2670;42.720;23.336;2023-05-07T06:46:51;16.10;;;12.40;;
5295;SDS011;2670;42.720;23.336;2023-05-07T06:49:19;18.90;;;12.13;;
5295;SDS011;2670;42.720;23.336;2023-05-07T06:51:46;22.17;;;11.80;;
5295;SDS011;2670;42.720;23.336;2023-05-07T06:54:12;17.17;;;11.37;;
5295;SDS011;2670;42.720;23.336;2023-05-07T06:56:39;18.57;;;11.30;;
5295;SDS011;2670;42.720;23.336;2023-05-07T06:59:06;18.00;;;11.50;;
5295;SDS011;2670;42.720;23.336;2023-05-07T07:01:33;17.43;;;10.93;;
5295;SDS011;2670;42.720;23.336;2023-05-07T07:04:00;22.93;;;11.50;;
5295;SDS011;2670;42.720;23.336;2023-05-07T07:06:28;16.27;;;11.33;;
5295;SDS011;2670;42.720;23.336;2023-05-07T07:08:56;16.30;;;11.83;;
5295;SDS011;2670;42.720;23.336;2023-05-07T07:11:23;21.63;;;11.30;;
5295;SDS011;2670;42.720;23.336;2023-05-07T07:13:50;17.73;;;11.70;;
5295;SDS011;2670;42.720;23.336;2023-05-07T07:16:16;17.47;;;10.83;;
5295;SDS011;2670;42.720;23.336;2023-05-07T07:18:43;16.33;;;11.70;;
5295;SDS011;2670;42.720;23.336;2023-05-07T07:21:10;19.47;;;11.23;;
5295;SDS011;2670;42.720;23.336;2023-05-07T07:23:38;17.40;;;11.27;;
5295;SDS011;2670;42.720;23.336;2023-05-07T07:26:05;14.50;;;10.57;;
5295;SDS011;2670;42.720;23.336;2023-05-07T07:28:32;16.53;;;10.50;;
5295;SDS011;2670;42.720;23.336;2023-05-07T07:30:58;15.13;;;10.27;;
5295;SDS011;2670;42.720;23.336;2023-05-07T07:33:25;20.77;;;10.93;;
5295;SDS011;2670;42.720;23.336;2023-05-07T07:35:52;19.60;;;11.10;;
5295;SDS011;2670;42.720;23.336;2023-05-07T07:38:19;18.47;;;10.40;;
5295;SDS011;2670;42.720;23.336;2023-05-07T07:40:48;13.13;;;10.00;;
5295;SDS011;2670;42.720;23.336;2023-05-07T07:43:15;13.40;;;10.73;;
5295;SDS011;2670;42.720;23.336;2023-05-07T07:45:41;14.30;;;11.00;;
5295;SDS011;2670;42.720;23.336;2023-05-07T07:48:09;13.90;;;10.23;;
5295;SDS011;2670;42.720;23.336;2023-05-07T07:50:35;16.40;;;12.17;;
5295;SDS011;2670;42.720;23.336;2023-05-07T07:53:02;21.93;;;14.50;;
5295;SDS011;2670;42.720;23.336;2023-05-07T07:55:28;26.83;;;15.90;;
5295;SDS011;2670;42.720;23.336;2023-05-07T07:57:58;18.90;;;12.27;;
5295;SDS011;2670;42.720;23.336;2023-05-07T08:00:24;20.80;;;13.80;;
5295;SDS011;2670;42.720;23.336;2023-05-07T08:02:51;16.43;;;12.27;;
5295;SDS011;2670;42.720;23.336;2023-05-07T08:05:18;14.70;;;10.33;;
5295;SDS011;2670;42.720;23.336;2023-05-07T08:07:45;14.43;;;11.17;;
5295;SDS011;2670;42.720;23.336;2023-05-07T08:10:16;19.77;;;11.10;;
5295;SDS011;2670;42.720;23.336;2023-05-07T08:12:46;16.10;;;11.43;;
5295;SDS011;2670;42.720;23.336;2023-05-07T08:15:14;16.70;;;10.67;;
5295;SDS011;2670;42.720;23.336;2023-05-07T08:17:41;19.33;;;11.00;;
5295;SDS011;2670;42.720;23.336;2023-05-07T08:20:09;16.27;;;11.30;;
5295;SDS011;2670;42.720;23.336;2023-05-07T08:22:36;17.90;;;11.17;;
5295;SDS011;2670;42.720;23.336;2023-05-07T08:25:03;16.37;;;9.77;;
5295;SDS011;2670;42.720;23.336;2023-05-07T08:27:31;15.47;;;9.43;;
5295;SDS011;2670;42.720;23.336;2023-05-07T08:29:57;11.00;;;8.30;;
5295;SDS011;2670;42.720;23.336;2023-05-07T08:32:25;16.37;;;9.30;;
5295;SDS011;2670;42.720;23.336;2023-05-07T08:34:52;16.90;;;8.63;;
5295;SDS011;2670;42.720;23.336;2023-05-07T08:37:20;11.67;;;9.00;;
5295;SDS011;2670;42.720;23.336;2023-05-07T08:39:46;14.30;;;9.80;;
5295;SDS011;2670;42.720;23.336;2023-05-07T08:42:13;11.30;;;8.90;;
5295;SDS011;2670;42.720;23.336;2023-05-07T08:44:42;14.00;;;8.40;;
5295;SDS011;2670;42.720;23.336;2023-05-07T08:47:12;14.20;;;7.80;;
5295;SDS011;2670;42.720;23.336;2023-05-07T08:49:40;16.83;;;8.77;;
5295;SDS011;2670;42.720;23.336;2023-05-07T08:52:08;13.50;;;9.10;;
5295;SDS011;2670;42.720;23.336;2023-05-07T08:54:35;11.70;;;7.90;;
5295;SDS011;2670;42.720;23.336;2023-05-07T08:57:03;14.27;;;8.93;;
5295;SDS011;2670;42.720;23.336;2023-05-07T08:59:30;10.27;;;8.17;;
5295;SDS011;2670;42.720;23.336;2023-05-07T09:01:57;13.13;;;8.77;;
5295;SDS011;2670;42.720;23.336;2023-05-07T09:04:23;17.93;;;8.57;;
5295;SDS011;2670;42.720;23.336;2023-05-07T09:06:52;14.80;;;7.30;;
5295;SDS011;2670;42.720;23.336;2023-05-07T09:09:18;15.47;;;8.53;;
5295;SDS011;2670;42.720;23.336;2023-05-07T09:11:45;15.63;;;7.90;;
5295;SDS011;2670;42.720;23.336;2023-05-07T09:14:12;9.67;;;7.50;;
5295;SDS011;2670;42.720;23.336;2023-05-07T09:16:39;10.57;;;7.43;;
5295;SDS011;2670;42.720;23.336;2023-05-07T09:19:05;11.57;;;7.20;;
5295;SDS011;2670;42.720;23.336;2023-05-07T09:21:32;9.20;;;7.27;;
5295;SDS011;2670;42.720;23.336;2023-05-07T09:24:00;10.93;;;6.23;;
5295;SDS011;2670;42.720;23.336;2023-05-07T09:26:27;7.37;;;5.93;;
5295;SDS011;2670;42.720;23.336;2023-05-07T09:28:53;10.77;;;6.43;;
5295;SDS011;2670;42.720;23.336;2023-05-07T09:31:20;6.80;;;5.83;;
5295;SDS011;2670;42.720;23.336;2023-05-07T09:33:48;11.70;;;7.33;;
5295;SDS011;2670;42.720;23.336;2023-05-07T09:36:15;8.37;;;5.30;;
5295;SDS011;2670;42.720;23.336;2023-05-07T09:38:42;10.33;;;4.73;;
5295;SDS011;2670;42.720;23.336;2023-05-07T09:41:10;6.77;;;4.97;;
5295;SDS011;2670;42.720;23.336;2023-05-07T09:43:38;6.93;;;4.37;;
5295;SDS011;2670;42.720;23.336;2023-05-07T09:46:07;6.87;;;5.13;;
5295;SDS011;2670;42.720;23.336;2023-05-07T09:48:38;6.33;;;4.53;;
5295;SDS011;2670;42.720;23.336;2023-05-07T09:53:54;6.60;;;4.20;;
5295;SDS011;2670;42.720;23.336;2023-05-07T09:56:26;6.97;;;4.50;;
5295;SDS011;2670;42.720;23.336;2023-05-07T09:58:54;6.83;;;4.77;;
5295;SDS011;2670;42.720;23.336;2023-05-07T10:01:22;7.30;;;4.50;;
5295;SDS011;2670;42.720;23.336;2023-05-07T10:03:51;5.77;;;4.20;;
5295;SDS011;2670;42.720;23.336;2023-05-07T10:06:19;8.83;;;4.60;;
5295;SDS011;2670;42.720;23.336;2023-05-07T10:08:46;7.63;;;4.70;;
5295;SDS011;2670;42.720;23.336;2023-05-07T10:11:14;7.33;;;4.73;;
5295;SDS011;2670;42.720;23.336;2023-05-07T10:13:44;5.13;;;3.77;;
5295;SDS011;2670;42.720;23.336;2023-05-07T10:16:12;10.00;;;4.33;;
5295;SDS011;2670;42.720;23.336;2023-05-07T10:18:40;4.33;;;3.93;;
5295;SDS011;2670;42.720;23.336;2023-05-07T10:21:07;8.90;;;3.80;;
5295;SDS011;2670;42.720;23.336;2023-05-07T10:23:36;6.00;;;3.80;;
5295;SDS011;2670;42.720;23.336;2023-05-07T10:26:06;5.57;;;2.90;;
5295;SDS011;2670;42.720;23.336;2023-05-07T10:28:35;6.63;;;4.40;;
5295;SDS011;2670;42.720;23.336;2023-05-07T10:31:10;7.20;;;3.77;;
5295;SDS011;2670;42.720;23.336;2023-05-07T10:33:45;5.07;;;3.57;;
5295;SDS011;2670;42.720;23.336;2023-05-07T10:36:15;16.53;;;9.57;;
5295;SDS011;2670;42.720;23.336;2023-05-07T10:38:42;6.50;;;4.03;;
5295;SDS011;2670;42.720;23.336;2023-05-07T10:41:09;4.50;;;3.60;;
5295;SDS011;2670;42.720;23.336;2023-05-07T10:43:40;5.37;;;3.90;;
5295;SDS011;2670;42.720;23.336;2023-05-07T10:46:16;4.50;;;3.53;;
5295;SDS011;2670;42.720;23.336;2023-05-07T10:51:38;16.17;;;3.37;;
5295;SDS011;2670;42.720;23.336;2023-05-07T10:54:20;4.60;;;3.10;;
5295;SDS011;2670;42.720;23.336;2023-05-07T10:56:48;6.20;;;3.23;;
5295;SDS011;2670;42.720;23.336;2023-05-07T10:59:34;6.67;;;5.00;;
5295;SDS011;2670;42.720;23.336;2023-05-07T11:02:08;7.23;;;4.63;;
5295;SDS011;2670;42.720;23.336;2023-05-07T11:04:36;17.03;;;5.10;;
5295;SDS011;2670;42.720;23.336;2023-05-07T11:10:07;5.67;;;4.30;;
5295;SDS011;2670;42.720;23.336;2023-05-07T11:18:08;3.93;;;3.10;;
5295;SDS011;2670;42.720;23.336;2023-05-07T11:20:44;5.57;;;3.63;;
5295;SDS011;2670;42.720;23.336;2023-05-07T11:26:14;3.60;;;3.00;;
5295;SDS011;2670;42.720;23.336;2023-05-07T11:28:42;5.83;;;3.53;;
5295;SDS011;2670;42.720;23.336;2023-05-07T11:31:10;3.60;;;2.83;;
5295;SDS011;2670;42.720;23.336;2023-05-07T11:33:38;5.90;;;2.60;;
5295;SDS011;2670;42.720;23.336;2023-05-07T11:36:05;4.40;;;3.00;;
5295;SDS011;2670;42.720;23.336;2023-05-07T11:38:34;3.57;;;2.77;;
5295;SDS011;2670;42.720;23.336;2023-05-07T11:41:02;5.97;;;3.20;;
5295;SDS011;2670;42.720;23.336;2023-05-07T11:43:30;4.23;;;2.73;;
5295;SDS011;2670;42.720;23.336;2023-05-07T11:46:04;3.13;;;2.53;;
5295;SDS011;2670;42.720;23.336;2023-05-07T11:48:32;5.00;;;3.40;;
5295;SDS011;2670;42.720;23.336;2023-05-07T11:51:01;4.77;;;2.90;;
5295;SDS011;2670;42.720;23.336;2023-05-07T11:53:34;2.80;;;2.60;;
5295;SDS011;2670;42.720;23.336;2023-05-07T11:56:05;5.00;;;2.90;;
5295;SDS011;2670;42.720;23.336;2023-05-07T11:58:33;7.20;;;3.13;;
5295;SDS011;2670;42.720;23.336;2023-05-07T12:00:59;6.67;;;3.27;;
5295;SDS011;2670;42.720;23.336;2023-05-07T12:03:26;9.63;;;2.67;;
5295;SDS011;2670;42.720;23.336;2023-05-07T12:05:53;3.30;;;2.80;;
5295;SDS011;2670;42.720;23.336;2023-05-07T12:08:21;3.37;;;2.70;;
5295;SDS011;2670;42.720;23.336;2023-05-07T12:10:49;4.63;;;2.97;;
5295;SDS011;2670;42.720;23.336;2023-05-07T12:13:16;4.63;;;2.27;;
5295;SDS011;2670;42.720;23.336;2023-05-07T12:15:43;4.27;;;2.93;;
5295;SDS011;2670;42.720;23.336;2023-05-07T12:18:11;9.80;;;2.80;;
5295;SDS011;2670;42.720;23.336;2023-05-07T12:20:38;4.23;;;2.17;;
5295;SDS011;2670;42.720;23.336;2023-05-07T12:23:06;5.30;;;2.77;;
5295;SDS011;2670;42.720;23.336;2023-05-07T12:25:35;3.90;;;2.90;;
5295;SDS011;2670;42.720;23.336;2023-05-07T12:28:03;2.63;;;2.43;;
5295;SDS011;2670;42.720;23.336;2023-05-07T12:30:31;3.00;;;2.50;;
5295;SDS011;2670;42.720;23.336;2023-05-07T12:33:00;3.50;;;2.70;;
5295;SDS011;2670;42.720;23.336;2023-05-07T12:35:27;5.00;;;2.50;;
5295;SDS011;2670;42.720;23.336;2023-05-07T12:37:57;2.90;;;2.60;;
5295;SDS011;2670;42.720;23.336;2023-05-07T12:40:37;2.60;;;2.40;;
5295;SDS011;2670;42.720;23.336;2023-05-07T12:43:05;10.10;;;2.60;;
5295;SDS011;2670;42.720;23.336;2023-05-07T12:45:32;5.43;;;2.87;;
5295;SDS011;2670;42.720;23.336;2023-05-07T12:48:03;3.10;;;2.80;;
5295;SDS011;2670;42.720;23.336;2023-05-07T12:50:31;2.60;;;2.40;;
5295;SDS011;2670;42.720;23.336;2023-05-07T12:52:58;5.83;;;2.77;;
5295;SDS011;2670;42.720;23.336;2023-05-07T12:55:25;3.70;;;2.97;;
5295;SDS011;2670;42.720;23.336;2023-05-07T12:57:53;3.13;;;2.80;;
5295;SDS011;2670;42.720;23.336;2023-05-07T13:00:32;3.60;;;2.43;;
5295;SDS011;2670;42.720;23.336;2023-05-07T13:02:59;2.93;;;2.47;;
5295;SDS011;2670;42.720;23.336;2023-05-07T13:05:26;4.30;;;2.43;;
5295;SDS011;2670;42.720;23.336;2023-05-07T13:07:53;3.50;;;2.70;;
5295;SDS011;2670;42.720;23.336;2023-05-07T13:10:19;4.53;;;2.73;;
5295;SDS011;2670;42.720;23.336;2023-05-07T13:12:47;3.80;;;3.13;;
5295;SDS011;2670;42.720;23.336;2023-05-07T13:15:16;4.40;;;2.80;;
5295;SDS011;2670;42.720;23.336;2023-05-07T13:17:43;3.40;;;2.70;;
5295;SDS011;2670;42.720;23.336;2023-05-07T13:20:10;4.27;;;3.27;;
5295;SDS011;2670;42.720;23.336;2023-05-07T13:22:37;3.00;;;2.70;;
5295;SDS011;2670;42.720;23.336;2023-05-07T13:25:05;3.10;;;2.70;;
5295;SDS011;2670;42.720;23.336;2023-05-07T13:27:32;3.27;;;2.47;;
5295;SDS011;2670;42.720;23.336;2023-05-07T13:30:01;5.27;;;3.20;;
5295;SDS011;2670;42.720;23.336;2023-05-07T13:32:30;3.70;;;2.80;;
5295;SDS011;2670;42.720;23.336;2023-05-07T13:34:57;3.27;;;2.40;;
5295;SDS011;2670;42.720;23.336;2023-05-07T13:37:25;2.97;;;2.50;;
5295;SDS011;2670;42.720;23.336;2023-05-07T13:39:52;6.23;;;2.70;;
5295;SDS011;2670;42.720;23.336;2023-05-07T13:42:18;8.40;;;2.73;;
5295;SDS011;2670;42.720;23.336;2023-05-07T13:44:45;3.10;;;2.77;;
5295;SDS011;2670;42.720;23.336;2023-05-07T13:47:11;4.93;;;3.40;;
5295;SDS011;2670;42.720;23.336;2023-05-07T13:49:40;4.80;;;3.30;;
5295;SDS011;2670;42.720;23.336;2023-05-07T13:52:06;4.20;;;3.80;;
5295;SDS011;2670;42.720;23.336;2023-05-07T13:54:33;4.97;;;2.63;;
5295;SDS011;2670;42.720;23.336;2023-05-07T13:57:00;5.40;;;2.93;;
5295;SDS011;2670;42.720;23.336;2023-05-07T13:59:26;4.47;;;3.10;;
5295;SDS011;2670;42.720;23.336;2023-05-07T14:01:53;3.20;;;2.80;;
5295;SDS011;2670;42.720;23.336;2023-05-07T14:04:20;3.47;;;2.57;;
5295;SDS011;2670;42.720;23.336;2023-05-07T14:06:48;3.70;;;2.53;;
5295;SDS011;2670;42.720;23.336;2023-05-07T14:09:15;5.70;;;2.97;;
5295;SDS011;2670;42.720;23.336;2023-05-07T14:11:41;7.43;;;3.60;;
5295;SDS011;2670;42.720;23.336;2023-05-07T14:14:08;3.93;;;3.07;;
5295;SDS011;2670;42.720;23.336;2023-05-07T14:16:36;4.63;;;2.50;;
5295;SDS011;2670;42.720;23.336;2023-05-07T14:19:03;4.00;;;3.30;;
5295;SDS011;2670;42.720;23.336;2023-05-07T14:21:30;5.20;;;3.40;;
5295;SDS011;2670;42.720;23.336;2023-05-07T14:23:58;6.30;;;3.40;;
5295;SDS011;2670;42.720;23.336;2023-05-07T14:26:25;3.57;;;3.13;;
5295;SDS011;2670;42.720;23.336;2023-05-07T14:28:53;4.77;;;3.10;;
5295;SDS011;2670;42.720;23.336;2023-05-07T14:31:22;3.30;;;2.87;;
5295;SDS011;2670;42.720;23.336;2023-05-07T14:33:49;4.50;;;2.70;;
5295;SDS011;2670;42.720;23.336;2023-05-07T14:36:15;4.10;;;3.10;;
5295;SDS011;2670;42.720;23.336;2023-05-07T14:38:42;3.30;;;3.00;;
5295;SDS011;2670;42.720;23.336;2023-05-07T14:41:11;6.10;;;3.43;;
5295;SDS011;2670;42.720;23.336;2023-05-07T14:43:37;4.80;;;2.60;;
5295;SDS011;2670;42.720;23.336;2023-05-07T14:46:04;3.57;;;3.27;;
5295;SDS011;2670;42.720;23.336;2023-05-07T14:48:31;4.10;;;2.53;;
5295;SDS011;2670;42.720;23.336;2023-05-07T14:50:58;4.83;;;2.90;;
5295;SDS011;2670;42.720;23.336;2023-05-07T14:53:24;5.30;;;2.70;;
5295;SDS011;2670;42.720;23.336;2023-05-07T14:55:51;4.20;;;3.17;;
5295;SDS011;2670;42.720;23.336;2023-05-07T14:58:19;3.83;;;3.00;;
5295;SDS011;2670;42.720;23.336;2023-05-07T15:00:46;4.00;;;3.60;;
5295;SDS011;2670;42.720;23.336;2023-05-07T15:03:12;13.60;;;8.60;;
5295;SDS011;2670;42.720;23.336;2023-05-07T15:05:40;8.10;;;5.07;;
5295;SDS011;2670;42.720;23.336;2023-05-07T15:08:06;4.93;;;3.20;;